Wetter Infos

Wetter-Informationen für den Flugplatz Hof

Die wichtigsten und aktuellen Wetterdaten für den Flugplatz Hof-Plauen sowie für die Umgebung haben wir hier zusammengestellt.

METARs

EDQM 281850Z 24015KT 6000 -SN FEW007 SCT012 BKN015 00/M01 Q0998

EDDN 290250Z 20007KT 3000 -SN BKN006 01/M00 Q1003 R28/290095

EDDP 290250Z 24016KT 9999 FEW045 02/M02 Q0999 TEMPO 23020G30KT

EDDC 290250Z 25013KT 220V280 9999 FEW033 02/M02 Q0999

Hof Wetter

DWD – Abruf von Luftsportberichten HIER


Aktuelles Niederschlagsradar

Quelle: © Deutscher Wetterdienst
Quelle: Deutscher Wetterdienst